createdAt,value
2022-12-01T00:02:34.310Z,18.70
2022-12-01T00:05:37.603Z,18.66
2022-12-01T00:08:40.305Z,18.66
2022-12-01T00:11:43.493Z,18.75
2022-12-01T00:14:55.131Z,18.72
2022-12-01T00:17:59.034Z,18.65
2022-12-01T00:21:01.816Z,18.66
2022-12-01T00:24:04.738Z,18.64
2022-12-01T00:27:08.829Z,18.61
2022-12-01T00:30:12.948Z,18.66
2022-12-01T00:33:15.718Z,18.61
2022-12-01T00:36:18.520Z,18.68
2022-12-01T00:39:21.369Z,18.67
2022-12-01T00:42:25.493Z,18.63
2022-12-01T00:45:28.329Z,18.65
2022-12-01T00:48:31.116Z,18.65
2022-12-01T00:51:33.904Z,18.69
2022-12-01T00:54:36.633Z,18.70
2022-12-01T00:57:41.190Z,18.67
2022-12-01T01:00:44.029Z,18.68
2022-12-01T01:03:46.755Z,18.70
2022-12-01T01:06:49.734Z,18.70
2022-12-01T01:09:52.520Z,18.68
2022-12-01T01:12:56.709Z,18.71
2022-12-01T01:16:00.425Z,18.66
2022-12-01T01:19:03.167Z,18.72
2022-12-01T01:22:05.918Z,18.73
2022-12-01T01:25:09.089Z,18.71
2022-12-01T01:28:13.251Z,18.62
2022-12-01T01:31:17.763Z,18.62
2022-12-01T01:34:20.648Z,18.56
2022-12-01T01:37:23.476Z,18.47
2022-12-01T01:40:26.270Z,18.45
2022-12-01T01:43:44.307Z,18.39
2022-12-01T01:46:47.162Z,18.34
2022-12-01T01:49:50.467Z,18.31
2022-12-01T01:52:58.255Z,18.22
2022-12-01T01:56:01.950Z,18.18
2022-12-01T01:59:06.128Z,18.13
2022-12-01T02:02:10.123Z,18.10
2022-12-01T02:05:14.087Z,18.04
2022-12-01T02:08:16.822Z,17.98
2022-12-01T02:11:49.491Z,17.93
2022-12-01T02:15:05.924Z,17.92
2022-12-01T02:18:17.461Z,17.85
2022-12-01T02:21:25.620Z,17.78
2022-12-01T02:24:51.972Z,17.76
2022-12-01T02:28:06.019Z,17.71
2022-12-01T02:31:15.345Z,17.67
2022-12-01T02:34:24.189Z,17.68
2022-12-01T02:37:32.512Z,17.71
2022-12-01T02:40:39.595Z,17.78
2022-12-01T02:43:45.494Z,17.80
2022-12-01T02:46:52.793Z,17.99
2022-12-01T02:49:56.463Z,18.04
2022-12-01T02:53:00.111Z,18.06
2022-12-01T02:56:07.083Z,18.11
2022-12-01T02:59:11.120Z,18.18
2022-12-01T03:02:21.916Z,18.15
2022-12-01T03:05:27.662Z,18.23
2022-12-01T03:08:33.899Z,18.28
2022-12-01T03:11:42.182Z,18.27
2022-12-01T03:14:47.205Z,18.32
2022-12-01T03:17:54.443Z,18.32
2022-12-01T03:21:00.223Z,18.33
2022-12-01T03:24:05.410Z,18.37
2022-12-01T03:27:09.954Z,18.38
2022-12-01T03:30:13.908Z,18.39
2022-12-01T03:33:20.089Z,18.40
2022-12-01T03:36:26.613Z,18.39
2022-12-01T03:39:33.303Z,18.41
2022-12-01T03:42:38.585Z,18.44
2022-12-01T03:45:44.905Z,18.40
2022-12-01T03:48:49.098Z,18.49
2022-12-01T03:52:06.862Z,18.50
2022-12-01T03:55:12.637Z,18.48
2022-12-01T03:58:17.947Z,18.50
2022-12-01T04:01:22.451Z,18.48
2022-12-01T04:04:26.612Z,18.50
2022-12-01T04:07:29.400Z,18.52
2022-12-01T04:10:33.143Z,18.51
2022-12-01T04:13:34.890Z,18.60
2022-12-01T04:16:37.614Z,18.69
2022-12-01T04:19:41.779Z,18.58
2022-12-01T04:22:44.526Z,18.53
2022-12-01T04:25:47.323Z,18.51
2022-12-01T04:28:50.109Z,18.55
2022-12-01T04:31:52.924Z,18.56
2022-12-01T04:34:57.053Z,18.55
2022-12-01T04:38:00.422Z,18.58
2022-12-01T04:41:03.173Z,18.59
2022-12-01T04:44:06.200Z,18.57
2022-12-01T04:47:09.025Z,18.58
2022-12-01T04:50:13.505Z,18.59
2022-12-01T04:53:16.324Z,18.56
2022-12-01T04:56:19.107Z,18.63
2022-12-01T04:59:21.988Z,18.59
2022-12-01T05:02:24.829Z,18.59
2022-12-01T05:05:29.128Z,18.63
2022-12-01T05:08:31.877Z,18.63
2022-12-01T05:11:34.686Z,18.63
2022-12-01T05:14:37.441Z,18.63
2022-12-01T05:17:40.258Z,18.62
2022-12-01T05:20:58.699Z,18.60
2022-12-01T05:24:01.437Z,18.61
2022-12-01T05:27:04.208Z,18.60
2022-12-01T05:30:07.515Z,18.62
2022-12-01T05:33:10.345Z,18.61
2022-12-01T05:36:14.474Z,18.62
2022-12-01T05:39:17.279Z,18.66
2022-12-01T05:42:20.037Z,18.63
2022-12-01T05:45:22.824Z,18.63
2022-12-01T05:48:25.618Z,18.66
2022-12-01T05:51:29.762Z,18.65
2022-12-01T05:54:38.100Z,18.68
2022-12-01T05:57:40.827Z,18.72
2022-12-01T06:00:45.962Z,18.71
2022-12-01T06:03:49.120Z,18.69
2022-12-01T06:06:53.296Z,18.70
2022-12-01T06:09:56.079Z,18.71
2022-12-01T06:12:58.865Z,18.69
2022-12-01T06:16:02.703Z,18.69
2022-12-01T06:19:05.424Z,18.70
2022-12-01T06:22:09.606Z,18.75
2022-12-01T06:25:12.341Z,18.73
2022-12-01T06:28:15.204Z,18.69
2022-12-01T06:31:18.023Z,18.71
2022-12-01T06:34:20.822Z,18.74
2022-12-01T06:37:24.971Z,18.71
2022-12-01T06:40:28.215Z,18.73
2022-12-01T06:43:31.383Z,18.73
2022-12-01T06:46:34.194Z,18.74
2022-12-01T06:49:38.001Z,18.76
2022-12-01T06:52:42.223Z,18.76
2022-12-01T06:55:45.044Z,18.77
2022-12-01T06:58:48.079Z,18.74
2022-12-01T07:01:50.913Z,18.74
2022-12-01T07:04:53.707Z,18.78
2022-12-01T07:07:59.710Z,18.73
2022-12-01T07:11:04.200Z,18.74
2022-12-01T07:14:07.009Z,18.78
2022-12-01T07:17:10.391Z,18.74
2022-12-01T07:20:13.429Z,18.78
2022-12-01T07:23:17.583Z,18.78
2022-12-01T07:26:20.406Z,18.75
2022-12-01T07:29:23.186Z,18.79
2022-12-01T07:32:25.970Z,18.81
2022-12-01T07:35:28.712Z,18.80
2022-12-01T07:38:33.522Z,18.81
2022-12-01T07:41:36.401Z,18.81
2022-12-01T07:44:39.127Z,18.83
2022-12-01T07:47:41.959Z,18.83
2022-12-01T14:15:34.984Z,15.01
2022-12-01T14:18:38.998Z,15.15
2022-12-01T14:21:43.317Z,15.41
2022-12-01T14:24:53.410Z,15.49
2022-12-01T14:27:57.714Z,16.51
2022-12-01T14:31:07.150Z,16.19
2022-12-01T14:34:15.738Z,16.15
2022-12-01T14:37:23.164Z,15.98
2022-12-01T14:40:26.842Z,16.02
2022-12-01T14:43:47.186Z,16.16
2022-12-01T14:46:54.790Z,16.21
2022-12-01T14:50:00.978Z,16.27
2022-12-01T14:53:07.860Z,16.31
2022-12-01T14:56:12.333Z,16.43
2022-12-01T14:59:16.518Z,16.54
2022-12-01T15:02:20.807Z,16.52
2022-12-01T15:05:25.264Z,16.51
2022-12-01T15:08:58.446Z,16.56
2022-12-01T15:11:53.644Z,16.54
2022-12-01T15:14:56.715Z,16.69
2022-12-01T15:18:01.862Z,16.64
2022-12-01T15:21:06.321Z,16.61
2022-12-01T15:24:21.598Z,16.67
2022-12-01T15:27:28.250Z,16.68
2022-12-01T15:30:32.466Z,16.71
2022-12-01T15:33:38.886Z,16.73
2022-12-01T15:36:41.740Z,16.80
2022-12-01T15:39:46.764Z,16.84
2022-12-01T15:43:01.869Z,16.84
2022-12-01T15:46:12.508Z,16.89
2022-12-01T15:49:20.912Z,16.88
2022-12-01T15:52:23.895Z,16.89
2022-12-01T15:55:28.805Z,16.87
2022-12-01T15:58:34.911Z,16.96
2022-12-01T16:01:38.490Z,16.97
2022-12-01T16:04:42.722Z,16.99
2022-12-01T16:11:12.593Z,17.04
2022-12-01T16:14:27.563Z,17.06
2022-12-01T16:17:42.507Z,17.09
2022-12-01T16:20:46.679Z,17.10
2022-12-01T16:23:59.166Z,17.14
2022-12-01T16:27:04.355Z,17.16
2022-12-01T16:30:09.293Z,17.48
2022-12-01T16:33:17.063Z,17.33
2022-12-01T16:36:26.689Z,17.31
2022-12-01T16:39:30.017Z,17.31
2022-12-01T16:42:32.690Z,17.36
2022-12-01T16:45:35.502Z,17.36
2022-12-01T16:48:38.620Z,17.37
2022-12-01T16:52:11.179Z,17.41
2022-12-01T16:55:17.897Z,17.44
2022-12-01T16:58:21.280Z,17.38
2022-12-01T17:01:24.778Z,17.38
2022-12-01T17:04:29.954Z,17.40
2022-12-01T17:07:36.726Z,17.38
2022-12-01T17:10:42.407Z,17.40
2022-12-01T17:13:48.474Z,17.73
2022-12-01T17:16:51.139Z,17.51
2022-12-01T17:19:59.382Z,17.44
2022-12-01T17:23:07.589Z,17.46
2022-12-01T17:26:17.719Z,17.57
2022-12-01T17:32:45.605Z,17.52
2022-12-01T17:35:50.098Z,17.48
2022-12-01T17:38:54.147Z,17.53
2022-12-01T17:42:00.278Z,17.52
2022-12-01T17:49:24.900Z,17.53
2022-12-01T17:52:28.688Z,17.45
2022-12-01T17:55:33.398Z,17.47
2022-12-01T17:58:36.380Z,17.55
2022-12-01T18:01:41.167Z,17.53
2022-12-01T18:04:44.022Z,17.58
2022-12-01T18:07:46.928Z,17.61
2022-12-01T18:10:51.641Z,17.60
2022-12-01T18:13:55.040Z,17.62
2022-12-01T18:16:57.845Z,17.61
2022-12-01T18:20:00.662Z,17.62
2022-12-01T18:23:03.497Z,17.64
2022-12-01T18:26:15.381Z,17.64
2022-12-01T18:29:26.141Z,17.67
2022-12-01T18:32:29.152Z,17.71
2022-12-01T18:35:32.224Z,17.72
2022-12-01T18:38:35.435Z,17.71
2022-12-01T18:41:39.948Z,17.71
2022-12-01T18:44:43.295Z,17.70
2022-12-01T18:47:46.637Z,17.74
2022-12-01T18:50:51.014Z,17.72
2022-12-01T18:53:57.231Z,17.73
2022-12-01T18:57:01.386Z,17.79
2022-12-01T19:00:05.829Z,17.80
2022-12-01T19:03:09.613Z,17.85
2022-12-01T19:06:13.013Z,17.89
2022-12-01T19:09:17.587Z,17.84
2022-12-01T19:12:21.904Z,17.86
2022-12-01T19:15:25.186Z,17.86
2022-12-01T19:19:04.221Z,17.88
2022-12-01T19:22:07.080Z,17.89
2022-12-01T19:25:11.619Z,17.88
2022-12-01T19:28:15.805Z,17.90
2022-12-01T19:31:20.254Z,17.92
2022-12-01T19:34:23.247Z,17.89
2022-12-01T19:37:26.447Z,17.89
2022-12-01T19:40:29.449Z,17.84
2022-12-01T19:43:34.177Z,17.79
2022-12-01T19:46:36.956Z,17.76
2022-12-01T19:49:39.758Z,17.70
2022-12-01T19:52:42.522Z,17.66
2022-12-01T19:55:45.442Z,17.60
2022-12-01T19:58:49.765Z,17.57
2022-12-01T20:01:52.553Z,17.51
2022-12-01T20:04:56.637Z,17.49
2022-12-01T20:07:59.480Z,17.51
2022-12-01T20:11:03.641Z,17.58
2022-12-01T20:14:08.553Z,17.56
2022-12-01T20:17:15.708Z,17.60
2022-12-01T20:20:18.940Z,17.67
2022-12-01T20:23:21.748Z,17.68
2022-12-01T20:26:30.042Z,17.74
2022-12-01T20:29:34.844Z,17.86
2022-12-01T20:32:37.609Z,17.81
2022-12-01T20:35:40.409Z,17.80
2022-12-01T20:38:43.685Z,17.84
2022-12-01T20:41:46.798Z,17.84
2022-12-01T20:44:52.130Z,17.88
2022-12-01T20:47:55.111Z,17.90
2022-12-01T20:50:57.909Z,17.89
2022-12-01T20:54:26.756Z,17.88
2022-12-01T20:57:23.554Z,17.91
2022-12-01T21:00:27.719Z,17.92
2022-12-01T21:03:30.460Z,17.94
2022-12-01T21:06:33.307Z,17.94
2022-12-01T21:09:36.117Z,17.97
2022-12-01T21:12:57.028Z,17.98
2022-12-01T21:16:05.042Z,17.96
2022-12-01T21:19:15.854Z,18.08
2022-12-01T21:22:19.366Z,18.11
2022-12-01T21:25:23.964Z,18.25
2022-12-01T21:28:27.735Z,18.19
2022-12-01T21:31:33.030Z,18.14
2022-12-01T21:34:35.953Z,18.12
2022-12-01T21:37:38.668Z,18.23
2022-12-01T21:40:43.038Z,18.17
2022-12-01T21:43:45.832Z,18.17
2022-12-01T21:46:51.273Z,18.19
2022-12-01T21:49:54.872Z,18.32
2022-12-01T21:52:58.981Z,18.46
2022-12-01T21:56:01.963Z,18.45
2022-12-01T21:59:12.166Z,18.25
2022-12-01T22:02:27.066Z,18.21
2022-12-01T22:05:32.587Z,18.24
2022-12-01T22:08:36.698Z,18.23
2022-12-01T22:11:39.468Z,18.22
2022-12-01T22:14:42.255Z,18.22
2022-12-01T22:17:47.434Z,18.26
2022-12-01T22:20:50.194Z,18.24
2022-12-01T22:23:58.500Z,18.29
2022-12-01T22:27:07.315Z,18.27
2022-12-01T22:30:14.926Z,18.32
2022-12-01T22:33:21.080Z,18.31
2022-12-01T22:36:25.645Z,18.37
2022-12-01T22:39:30.914Z,18.47
2022-12-01T22:42:34.654Z,18.41
2022-12-01T22:45:37.573Z,18.47
2022-12-01T22:48:42.893Z,18.43
2022-12-01T22:51:47.502Z,18.45
2022-12-01T22:54:51.371Z,18.49
2022-12-01T22:57:55.122Z,18.44
2022-12-01T23:00:59.433Z,18.45
2022-12-01T23:04:13.332Z,18.45
2022-12-01T23:07:32.608Z,18.45
2022-12-01T23:10:36.064Z,18.47
2022-12-01T23:13:38.777Z,18.45
2022-12-01T23:16:41.704Z,18.44
2022-12-01T23:19:45.831Z,18.48
2022-12-01T23:22:48.599Z,18.47
2022-12-01T23:25:51.717Z,18.45
2022-12-01T23:28:57.477Z,18.44
2022-12-01T23:32:00.269Z,18.46
2022-12-01T23:35:04.573Z,18.46
2022-12-01T23:38:10.193Z,18.49
2022-12-01T23:41:15.135Z,18.51
2022-12-01T23:44:20.489Z,18.55
2022-12-01T23:47:26.001Z,18.55
2022-12-01T23:50:31.312Z,18.51
2022-12-01T23:53:34.453Z,18.53
2022-12-01T23:56:38.736Z,18.53
2022-12-01T23:59:41.591Z,18.51
